Terminal Aerodrome Forecast
Issued by NWS

Home | Current Version | Previous Version | Graphics & Text | Print | Product List | Glossary On
Versions: 1 2 3 4 5 6 7 8 9 10 11 12 13 14 15 16 17 18 19
631
FTUS43 KBIS 181130
TAFMOT
TAF
KMOT 181130Z 1812/1912 25014G20KT P6SM FEW200 WS020/29035KT
     FM181700 23014KT P6SM SKC=

USA.gov is the U.S. government's official web portal to all federal, state and local government web resources and services.